Time;durP1;ratioP1;P1;durP2;ratioP2;P2;SDS_P1;SDS_P2;PMS_P1;PMS_P2;Temp;Humidity;BMP_temperature;BMP_pressure;BME280_temperature;BME280_humidity;BME280_pressure;Samples;Min_cycle;Max_cycle;Signal;HPM_P1;HPM_P2
2023/05/11 00:01:35;;;;;;;8.95;5.63;;;10.40;99.90;;;;;;4972754;28;20045;-73
2023/05/11 00:04:00;;;;;;;9.35;6.50;;;10.40;99.90;;;;;;4992456;28;20054;-73
2023/05/11 00:06:26;;;;;;;8.80;6.43;;;10.30;99.90;;;;;;4990451;28;20400;-73
2023/05/11 00:08:52;;;;;;;10.00;5.95;;;10.30;99.90;;;;;;4991762;28;20484;-73
2023/05/11 00:11:18;;;;;;;9.55;7.05;;;10.30;99.90;;;;;;4974796;28;20045;-73
2023/05/11 00:13:44;;;;;;;23.48;7.28;;;10.40;99.90;;;;;;4990825;28;20050;-73
2023/05/11 00:16:10;;;;;;;16.35;7.07;;;10.40;99.90;;;;;;4991464;28;20073;-73
2023/05/11 00:18:35;;;;;;;13.68;7.97;;;10.40;99.90;;;;;;4990549;28;20089;-73
2023/05/11 00:21:01;;;;;;;15.43;7.13;;;10.40;99.90;;;;;;4976020;28;20133;-73
2023/05/11 00:23:27;;;;;;;12.73;7.22;;;10.40;99.90;;;;;;4973829;28;20330;-73
2023/05/11 00:25:53;;;;;;;27.27;7.57;;;10.40;99.90;;;;;;4991793;28;20030;-73
2023/05/11 00:28:19;;;;;;;17.33;7.70;;;10.40;99.90;;;;;;4990118;28;20034;-73
2023/05/11 00:30:45;;;;;;;19.48;7.90;;;10.50;99.90;;;;;;4971823;28;20181;-73
2023/05/11 00:33:11;;;;;;;24.58;8.60;;;10.40;99.90;;;;;;4983803;28;20053;-73
2023/05/11 00:35:36;;;;;;;21.92;8.38;;;10.40;99.90;;;;;;4954684;28;20042;-73
2023/05/11 00:38:02;;;;;;;21.63;8.05;;;10.40;99.90;;;;;;4988383;28;20046;-73
2023/05/11 00:40:30;;;;;;;21.33;7.93;;;10.50;99.90;;;;;;4986575;28;20212;-73
2023/05/11 00:42:56;;;;;;;23.15;7.70;;;10.50;99.90;;;;;;4988450;28;20069;-73
2023/05/11 00:45:22;;;;;;;22.90;7.93;;;10.50;99.90;;;;;;4986301;28;20443;-73
2023/05/11 00:47:49;;;;;;;18.92;7.50;;;10.50;99.90;;;;;;4988290;28;20042;-73
2023/05/11 00:50:15;;;;;;;18.85;7.53;;;10.50;99.90;;;;;;4987439;28;20125;-73
2023/05/11 00:52:41;;;;;;;12.05;7.82;;;10.50;99.90;;;;;;4970870;28;20493;-73
2023/05/11 00:55:07;;;;;;;16.58;7.72;;;10.40;99.90;;;;;;4987820;28;20050;-73
2023/05/11 00:57:35;;;;;;;12.00;8.02;;;10.50;99.90;;;;;;4987596;28;20152;-73
2023/05/11 01:00:05;;;;;;;26.42;6.55;;;10.40;99.90;;;;;;4987371;28;20053;-73
2023/05/11 01:02:32;;;;;;;27.92;7.57;;;10.50;99.90;;;;;;4986166;28;20046;-73
2023/05/11 01:04:58;;;;;;;12.60;8.07;;;10.40;99.90;;;;;;4987257;28;20571;-73
2023/05/11 01:07:29;;;;;;;15.70;7.45;;;10.40;99.90;;;;;;4969837;28;20078;-73
2023/05/11 01:10:16;;;;;;;17.55;8.00;;;10.40;99.90;;;;;;4977212;28;20128;-73
2023/05/11 01:13:08;;;;;;;11.00;7.53;;;10.40;99.90;;;;;;4986518;28;20054;-73
2023/05/11 01:15:45;;;;;;;13.15;8.00;;;10.40;99.90;;;;;;4985580;28;20045;-73
2023/05/11 01:18:30;;;;;;;13.25;8.82;;;10.40;99.90;;;;;;4965153;28;20508;-73
2023/05/11 01:21:00;;;;;;;13.57;9.00;;;10.40;99.90;;;;;;4987454;28;20404;-73
2023/05/11 01:23:47;;;;;;;14.27;8.77;;;10.30;99.90;;;;;;4985845;28;20458;-73
2023/05/11 01:26:34;;;;;;;16.40;9.05;;;10.30;99.90;;;;;;4987553;28;20510;-73
2023/05/11 01:29:18;;;;;;;11.48;7.95;;;10.40;99.90;;;;;;4986688;28;20057;-73
2023/05/11 01:31:47;;;;;;;14.27;6.97;;;10.40;99.90;;;;;;4985978;28;20046;-73
2023/05/11 01:34:17;;;;;;;8.63;7.30;;;10.40;99.90;;;;;;4985688;28;20038;-73
2023/05/11 01:36:58;;;;;;;7.72;6.55;;;10.40;99.90;;;;;;4979945;28;20053;-73
2023/05/11 01:39:44;;;;;;;7.95;6.47;;;10.40;99.90;;;;;;4970368;28;20101;-72
2023/05/11 01:42:10;;;;;;;15.73;6.80;;;10.40;99.90;;;;;;4982525;28;20102;-73
2023/05/11 01:44:43;;;;;;;9.57;6.00;;;10.40;99.90;;;;;;4949723;28;20054;-73
2023/05/11 01:47:12;;;;;;;10.73;6.32;;;10.40;99.90;;;;;;4987255;28;20516;-73
2023/05/11 01:49:41;;;;;;;7.75;6.10;;;10.40;99.90;;;;;;4968843;28;20116;-73
2023/05/11 01:52:08;;;;;;;13.90;6.65;;;10.30;99.90;;;;;;4988313;28;20050;-73
2023/05/11 01:54:35;;;;;;;8.55;7.03;;;10.40;99.90;;;;;;4979869;28;20125;-72
2023/05/11 01:57:03;;;;;;;11.50;6.43;;;10.30;99.90;;;;;;4985771;28;20046;-73
2023/05/11 01:59:31;;;;;;;8.55;6.13;;;10.30;99.90;;;;;;4985915;28;20092;-73
2023/05/11 02:01:58;;;;;;;7.80;6.55;;;10.20;99.90;;;;;;4976393;28;20058;-73
2023/05/11 02:04:24;;;;;;;9.77;6.18;;;10.30;99.90;;;;;;4985746;28;20082;-73
2023/05/11 02:06:52;;;;;;;9.35;5.53;;;10.30;99.90;;;;;;4969039;28;20050;-73
2023/05/11 02:09:18;;;;;;;5.80;5.25;;;10.20;99.90;;;;;;4986411;28;20050;-73
2023/05/11 02:11:47;;;;;;;14.57;5.45;;;10.30;99.90;;;;;;4969042;28;20065;-73
2023/05/11 02:14:14;;;;;;;7.72;5.00;;;10.20;99.90;;;;;;4970442;28;20061;-73
2023/05/11 02:16:40;;;;;;;6.57;5.85;;;10.20;99.90;;;;;;4985516;28;20126;-73
2023/05/11 02:19:07;;;;;;;7.43;5.22;;;10.10;99.90;;;;;;4953681;28;20053;-73
2023/05/11 02:21:34;;;;;;;6.13;4.90;;;10.10;99.90;;;;;;4986006;28;20050;-73
2023/05/11 02:24:05;;;;;;;6.75;5.15;;;10.00;99.90;;;;;;4969525;28;20169;-73
2023/05/11 02:26:31;;;;;;;6.40;5.30;;;10.00;99.90;;;;;;4953387;28;20043;-73
2023/05/11 02:28:56;;;;;;;11.20;5.07;;;10.00;99.90;;;;;;4953063;28;20050;-73
2023/05/11 02:31:27;;;;;;;9.10;4.97;;;9.90;99.90;;;;;;4970030;28;20074;-74
2023/05/11 02:33:58;;;;;;;8.43;4.63;;;9.90;99.90;;;;;;4969527;28;20418;-73
2023/05/11 02:36:28;;;;;;;5.35;4.75;;;9.90;99.90;;;;;;4985428;28;20041;-73
2023/05/11 02:39:00;;;;;;;5.97;5.38;;;9.90;99.90;;;;;;4986391;28;20128;-73
2023/05/11 02:41:28;;;;;;;10.38;5.20;;;9.90;99.90;;;;;;4968663;28;20042;-73
2023/05/11 02:43:58;;;;;;;5.15;4.65;;;9.90;99.90;;;;;;4970289;28;20404;-73
2023/05/11 02:46:30;;;;;;;5.10;4.60;;;9.90;99.90;;;;;;4968719;28;20065;-73
2023/05/11 02:48:59;;;;;;;4.57;4.20;;;9.90;99.90;;;;;;4970132;28;20058;-73
2023/05/11 02:51:33;;;;;;;4.65;4.25;;;9.90;99.90;;;;;;4985913;28;20039;-73
2023/05/11 02:54:00;;;;;;;5.70;4.22;;;9.90;99.90;;;;;;4985308;28;20383;-73
2023/05/11 02:56:26;;;;;;;4.90;4.50;;;9.90;99.90;;;;;;4969694;28;20066;-73
2023/05/11 02:58:52;;;;;;;5.20;4.40;;;9.90;99.90;;;;;;4968374;28;20070;-73
2023/05/11 03:01:18;;;;;;;5.80;4.60;;;9.90;99.90;;;;;;4986701;28;20129;-73
2023/05/11 03:03:44;;;;;;;7.05;4.85;;;9.90;99.90;;;;;;4968058;28;20493;-73
2023/05/11 03:06:10;;;;;;;6.20;5.60;;;9.90;99.90;;;;;;4986133;28;20053;-73
2023/05/11 03:08:36;;;;;;;6.10;5.50;;;9.90;99.90;;;;;;4952310;28;20042;-73
2023/05/11 03:11:02;;;;;;;5.95;5.10;;;10.00;99.90;;;;;;4969109;28;20086;-73
2023/05/11 03:13:29;;;;;;;7.70;5.28;;;10.00;99.90;;;;;;4986049;28;20109;-72
2023/05/11 03:15:56;;;;;;;11.68;5.97;;;9.90;99.90;;;;;;4984490;28;20058;-73
2023/05/11 03:18:22;;;;;;;35.50;6.97;;;10.00;99.90;;;;;;4969438;28;20504;-73
2023/05/11 03:20:50;;;;;;;22.95;6.57;;;10.00;99.90;;;;;;4967893;28;20050;-73
2023/05/11 03:23:17;;;;;;;8.20;5.97;;;10.00;99.90;;;;;;4970059;28;20046;-73
2023/05/11 03:25:44;;;;;;;20.65;6.18;;;10.00;99.90;;;;;;4984206;28;20042;-73
2023/05/11 03:28:12;;;;;;;16.13;6.90;;;10.10;99.90;;;;;;4985402;28;20109;-73
2023/05/11 03:30:41;;;;;;;11.82;6.07;;;10.10;99.90;;;;;;4985080;28;20444;-73
2023/05/11 03:33:07;;;;;;;11.88;6.82;;;10.00;99.90;;;;;;4985899;28;20054;-73
2023/05/11 03:35:35;;;;;;;8.05;5.95;;;10.10;99.90;;;;;;4956434;28;20039;-73
2023/05/11 03:38:03;;;;;;;8.45;6.18;;;10.10;99.90;;;;;;4987977;28;20057;-73
2023/05/11 03:40:30;;;;;;;6.90;6.25;;;10.10;99.90;;;;;;4985801;28;20042;-73
2023/05/11 03:42:57;;;;;;;8.63;6.70;;;10.10;99.90;;;;;;4987667;28;20086;-73
2023/05/11 03:45:26;;;;;;;8.57;6.25;;;10.10;99.90;;;;;;4972596;28;20053;-73
2023/05/11 03:47:53;;;;;;;11.15;6.35;;;10.10;99.90;;;;;;4988698;28;20519;-74
2023/05/11 03:50:20;;;;;;;18.85;7.25;;;10.10;99.90;;;;;;4987596;28;20046;-73
2023/05/11 03:52:47;;;;;;;7.60;6.32;;;10.10;99.90;;;;;;4988698;28;20112;-73
2023/05/11 03:55:13;;;;;;;17.45;7.30;;;10.10;99.90;;;;;;4987879;28;20046;-73
2023/05/11 03:57:39;;;;;;;38.50;6.55;;;10.10;99.90;;;;;;4988624;28;20526;-73
2023/05/11 04:00:07;;;;;;;12.63;6.60;;;10.10;99.90;;;;;;4987228;28;20054;-73
2023/05/11 04:02:33;;;;;;;11.52;6.82;;;10.10;99.90;;;;;;4988536;28;20129;-73
2023/05/11 04:04:59;;;;;;;13.43;7.00;;;10.20;99.90;;;;;;4987965;28;20057;-73
2023/05/11 04:07:25;;;;;;;11.88;6.88;;;10.20;99.90;;;;;;4972089;28;20058;-73
2023/05/11 04:09:51;;;;;;;18.42;7.18;;;10.20;99.90;;;;;;4972051;28;20046;-73
2023/05/11 04:12:16;;;;;;;13.02;7.32;;;10.20;99.90;;;;;;4971237;28;20050;-73
2023/05/11 04:14:42;;;;;;;35.70;7.55;;;10.30;99.90;;;;;;4988485;28;20046;-73
2023/05/11 04:17:08;;;;;;;13.80;7.00;;;10.30;99.90;;;;;;4987205;28;20497;-73
2023/05/11 04:19:37;;;;;;;25.35;7.38;;;10.30;99.90;;;;;;4972332;28;20042;-73
2023/05/11 04:22:02;;;;;;;19.05;7.82;;;10.30;99.90;;;;;;4970948;28;20050;-73
2023/05/11 04:24:28;;;;;;;15.52;8.00;;;10.30;99.90;;;;;;4988290;28;20054;-73
2023/05/11 04:26:57;;;;;;;14.27;7.93;;;10.40;99.90;;;;;;4955733;28;20050;-73
2023/05/11 04:29:22;;;;;;;11.50;8.73;;;10.40;99.90;;;;;;4987751;28;20401;-73
2023/05/11 04:31:48;;;;;;;9.27;7.70;;;10.40;99.90;;;;;;4970930;28;20058;-73
2023/05/11 04:34:14;;;;;;;17.50;7.65;;;10.40;99.90;;;;;;4987211;28;20062;-73
2023/05/11 04:36:40;;;;;;;9.63;7.68;;;10.40;99.90;;;;;;4971953;28;20590;-74
2023/05/11 04:39:06;;;;;;;19.90;8.38;;;10.40;99.90;;;;;;4986704;28;20065;-73
2023/05/11 04:41:32;;;;;;;20.23;9.05;;;10.40;99.90;;;;;;4971359;28;20035;-73
2023/05/11 04:43:58;;;;;;;22.77;8.93;;;10.40;99.90;;;;;;4987704;28;20138;-73
2023/05/11 04:46:24;;;;;;;15.20;8.60;;;10.50;99.90;;;;;;4986022;28;20084;-73
2023/05/11 04:48:50;;;;;;;11.70;8.00;;;10.40;99.90;;;;;;4987613;28;20086;-73
2023/05/11 04:51:16;;;;;;;11.73;7.93;;;10.40;99.90;;;;;;4986789;28;20111;-73
2023/05/11 04:53:42;;;;;;;14.02;8.30;;;10.40;99.90;;;;;;4971381;28;20076;-74
2023/05/11 04:56:07;;;;;;;14.18;8.48;;;10.40;99.90;;;;;;4986317;28;20051;-73
2023/05/11 04:58:33;;;;;;;12.20;8.70;;;10.50;99.90;;;;;;4987596;28;20052;-73
2023/05/11 05:00:59;;;;;;;16.13;8.18;;;10.50;99.90;;;;;;4970520;28;20058;-73
2023/05/11 05:03:25;;;;;;;9.57;7.72;;;10.50;99.90;;;;;;4987081;28;20073;-73
2023/05/11 05:05:51;;;;;;;11.38;8.35;;;10.50;99.90;;;;;;4987472;28;20490;-73
2023/05/11 05:08:17;;;;;;;11.90;7.55;;;10.50;99.90;;;;;;4986467;28;20497;-75
2023/05/11 05:10:43;;;;;;;7.63;6.38;;;10.50;99.90;;;;;;4971535;28;20093;-73
2023/05/11 05:13:08;;;;;;;11.45;7.30;;;10.50;99.90;;;;;;4969586;28;20107;-73
2023/05/11 05:15:34;;;;;;;13.82;7.50;;;10.50;99.90;;;;;;4955476;28;20039;-74
2023/05/11 05:18:00;;;;;;;11.13;7.05;;;10.50;99.90;;;;;;4987669;28;20133;-74
2023/05/11 05:20:25;;;;;;;6.68;5.95;;;10.60;99.90;;;;;;4971279;28;20065;-74
2023/05/11 05:22:51;;;;;;;10.55;7.30;;;10.60;99.90;;;;;;4969796;28;20046;-74
2023/05/11 05:25:17;;;;;;;8.50;6.82;;;10.60;99.90;;;;;;4986747;28;20053;-73
2023/05/11 05:27:42;;;;;;;11.88;7.07;;;10.60;99.90;;;;;;4986907;28;20126;-73
2023/05/11 05:30:08;;;;;;;10.77;7.00;;;10.60;99.90;;;;;;4985737;28;20599;-74
2023/05/11 05:32:34;;;;;;;11.60;7.78;;;10.70;99.90;;;;;;4971132;28;20394;-74
2023/05/11 05:35:00;;;;;;;9.02;7.40;;;10.60;99.90;;;;;;4984928;28;20481;-74
2023/05/11 05:37:25;;;;;;;9.70;7.80;;;10.60;99.90;;;;;;4987119;28;20047;-73
2023/05/11 05:39:52;;;;;;;10.77;8.40;;;10.60;99.90;;;;;;4985660;28;20042;-73
2023/05/11 05:42:18;;;;;;;8.70;7.15;;;10.60;99.90;;;;;;4986900;28;20096;-73
2023/05/11 05:44:44;;;;;;;11.68;8.25;;;10.60;99.90;;;;;;4970359;28;20106;-73
2023/05/11 05:47:09;;;;;;;14.90;7.95;;;10.60;99.90;;;;;;4953632;28;20062;-74
2023/05/11 05:49:35;;;;;;;12.00;8.60;;;10.60;99.90;;;;;;4970866;28;20488;-74
2023/05/11 05:52:01;;;;;;;17.08;9.30;;;10.60;99.90;;;;;;4984134;28;20042;-73
2023/05/11 05:54:27;;;;;;;12.60;8.75;;;10.60;99.90;;;;;;4986405;28;20051;-73
2023/05/11 05:56:52;;;;;;;16.33;8.57;;;10.70;99.90;;;;;;4984963;28;20413;-73
2023/05/11 05:59:22;;;;;;;10.88;8.52;;;10.70;99.90;;;;;;4985910;28;20054;-73
2023/05/11 06:01:48;;;;;;;11.32;9.00;;;10.70;99.90;;;;;;4969422;28;20053;-73
2023/05/11 06:04:14;;;;;;;11.88;8.73;;;10.70;99.90;;;;;;4968870;28;20378;-74
2023/05/11 06:06:40;;;;;;;27.10;8.60;;;10.70;99.90;;;;;;4969150;28;20061;-74
2023/05/11 06:09:06;;;;;;;9.75;8.05;;;10.80;99.90;;;;;;4984665;28;20429;-74
2023/05/11 06:11:31;;;;;;;20.42;8.05;;;10.70;99.90;;;;;;4970792;28;20046;-73
2023/05/11 06:13:57;;;;;;;8.70;7.88;;;10.70;99.90;;;;;;4983555;28;20712;-74
2023/05/11 06:16:24;;;;;;;8.93;7.90;;;10.70;99.90;;;;;;4954240;28;20050;-74
2023/05/11 06:18:50;;;;;;;9.90;7.70;;;10.70;99.90;;;;;;4985840;28;20088;-74
2023/05/11 06:21:16;;;;;;;8.80;7.28;;;10.70;99.90;;;;;;4985628;28;20496;-74
2023/05/11 06:23:41;;;;;;;15.95;7.50;;;10.80;99.90;;;;;;4986507;28;20067;-74
2023/05/11 06:26:07;;;;;;;10.35;7.13;;;10.80;99.90;;;;;;4976651;28;20054;-73
2023/05/11 06:28:33;;;;;;;7.30;6.57;;;10.80;99.90;;;;;;4985272;28;20046;-74
2023/05/11 06:30:59;;;;;;;7.88;6.60;;;10.90;99.90;;;;;;4984051;28;20050;-74
2023/05/11 06:33:25;;;;;;;9.02;7.85;;;10.90;99.90;;;;;;4954036;28;20508;-74
2023/05/11 06:35:51;;;;;;;7.28;6.50;;;11.00;99.90;;;;;;4969098;28;20042;-74
2023/05/11 06:38:16;;;;;;;8.85;7.20;;;10.90;99.90;;;;;;4954180;28;20077;-74
2023/05/11 06:40:43;;;;;;;9.20;7.05;;;11.00;99.90;;;;;;4985666;28;20485;-74
2023/05/11 06:43:09;;;;;;;8.80;7.20;;;11.10;99.90;;;;;;4968999;28;20057;-73
2023/05/11 06:45:35;;;;;;;8.35;7.00;;;11.10;99.90;;;;;;4969950;28;20050;-73
2023/05/11 06:48:03;;;;;;;7.60;6.82;;;11.10;99.90;;;;;;4984485;28;20058;-73
2023/05/11 06:50:29;;;;;;;8.85;6.05;;;11.10;99.90;;;;;;4970218;28;20125;-73
2023/05/11 06:52:55;;;;;;;10.55;7.05;;;11.10;99.90;;;;;;4968760;28;20039;-73
2023/05/11 06:55:20;;;;;;;6.85;6.03;;;11.20;99.90;;;;;;4985597;28;20487;-73
2023/05/11 06:57:46;;;;;;;8.02;6.93;;;11.20;99.90;;;;;;4968558;28;20117;-73
2023/05/11 07:00:12;;;;;;;7.43;6.70;;;11.20;99.90;;;;;;4953122;28;20050;-73
2023/05/11 07:02:38;;;;;;;6.60;5.85;;;11.30;99.90;;;;;;4969618;28;20465;-73
2023/05/11 07:05:04;;;;;;;10.18;6.55;;;11.30;99.90;;;;;;4984638;28;20129;-73
2023/05/11 07:07:30;;;;;;;10.10;5.78;;;11.30;99.90;;;;;;4986067;28;20749;-74
2023/05/11 07:09:55;;;;;;;8.32;6.35;;;11.30;99.90;;;;;;4969912;28;20132;-73
2023/05/11 07:12:21;;;;;;;6.03;5.43;;;11.30;99.90;;;;;;4970419;28;20034;-73
2023/05/11 07:14:47;;;;;;;6.20;5.60;;;11.40;99.90;;;;;;4972201;28;20421;-74
2023/05/11 07:17:13;;;;;;;5.93;5.35;;;11.50;99.90;;;;;;4956714;28;20043;-74
2023/05/11 07:19:39;;;;;;;6.25;5.65;;;11.50;99.90;;;;;;4971029;28;20133;-75
2023/05/11 07:22:04;;;;;;;5.97;5.32;;;11.50;99.90;;;;;;4954461;28;20038;-74
2023/05/11 07:24:30;;;;;;;5.22;4.82;;;11.50;99.90;;;;;;4987198;28;20053;-74
2023/05/11 07:26:56;;;;;;;5.82;5.28;;;11.40;99.90;;;;;;4970377;28;20092;-74
2023/05/11 07:29:22;;;;;;;6.55;5.68;;;11.40;99.90;;;;;;4987733;28;20046;-73
2023/05/11 07:31:48;;;;;;;6.22;5.32;;;11.40;99.90;;;;;;4986024;28;20046;-74
2023/05/11 07:34:13;;;;;;;7.35;6.13;;;11.40;99.90;;;;;;4971689;28;20057;-74
2023/05/11 07:36:39;;;;;;;5.90;5.32;;;11.40;99.90;;;;;;4987727;28;20054;-74
2023/05/11 07:39:05;;;;;;;6.95;5.45;;;11.50;99.90;;;;;;4956650;28;20089;-73
2023/05/11 07:41:30;;;;;;;5.43;4.95;;;11.60;99.90;;;;;;4956641;28;20046;-73
2023/05/11 07:43:59;;;;;;;6.13;5.50;;;11.50;99.90;;;;;;4972437;28;20523;-73
2023/05/11 07:46:25;;;;;;;6.47;5.78;;;11.50;99.90;;;;;;4989048;28;20061;-73
2023/05/11 07:48:51;;;;;;;6.88;5.53;;;11.60;99.90;;;;;;4971901;28;20422;-74
2023/05/11 07:51:17;;;;;;;5.90;5.32;;;11.60;99.90;;;;;;4972895;28;20104;-73
2023/05/11 07:53:43;;;;;;;6.45;5.43;;;11.70;99.90;;;;;;4987560;28;20575;-73
2023/05/11 07:56:09;;;;;;;6.88;5.63;;;11.60;99.90;;;;;;4988803;28;20519;-73
2023/05/11 07:58:35;;;;;;;6.10;5.28;;;11.60;99.90;;;;;;4987366;28;20042;-73
2023/05/11 08:01:01;;;;;;;5.95;5.35;;;11.50;99.90;;;;;;4971031;28;20105;-73
2023/05/11 08:03:26;;;;;;;7.97;6.10;;;11.70;99.90;;;;;;4987700;28;20038;-73
2023/05/11 08:05:52;;;;;;;7.80;6.35;;;11.60;99.90;;;;;;4947298;28;20046;-73
2023/05/11 08:08:18;;;;;;;6.30;5.72;;;11.70;99.90;;;;;;4972096;28;20054;-73
2023/05/11 08:10:43;;;;;;;6.90;6.13;;;11.70;99.90;;;;;;4986902;28;20039;-73
2023/05/11 08:13:09;;;;;;;6.45;5.68;;;11.80;99.90;;;;;;4985814;28;20412;-73
2023/05/11 08:15:35;;;;;;;7.20;5.47;;;11.80;99.90;;;;;;4968320;28;20058;-73
2023/05/11 08:18:01;;;;;;;8.13;5.60;;;11.80;99.90;;;;;;4988468;28;20184;-73
2023/05/11 08:20:27;;;;;;;6.47;5.30;;;11.90;99.90;;;;;;4987888;28;20042;-73
2023/05/11 08:22:53;;;;;;;7.10;5.80;;;11.90;99.90;;;;;;4986753;28;20494;-73
2023/05/11 08:25:19;;;;;;;6.15;5.13;;;11.90;99.90;;;;;;4986787;28;20198;-73
2023/05/11 08:27:44;;;;;;;5.28;4.78;;;12.00;99.90;;;;;;4969508;28;20046;-73
2023/05/11 08:30:10;;;;;;;5.18;4.68;;;12.00;99.90;;;;;;4973363;28;20053;-73
2023/05/11 08:32:38;;;;;;;5.20;4.70;;;12.00;99.90;;;;;;4988906;28;20148;-73
2023/05/11 08:35:04;;;;;;;5.60;4.05;;;12.10;99.90;;;;;;4990329;28;20057;-73
2023/05/11 08:37:30;;;;;;;5.65;4.70;;;12.10;99.90;;;;;;4990276;28;20046;-73
2023/05/11 08:39:56;;;;;;;5.88;5.28;;;12.20;99.90;;;;;;4990468;28;20136;-73
2023/05/11 08:42:24;;;;;;;7.75;4.90;;;12.10;99.90;;;;;;4974491;28;20132;-73
2023/05/11 08:44:53;;;;;;;5.32;4.57;;;12.10;99.90;;;;;;4989878;28;20053;-73
2023/05/11 08:47:19;;;;;;;;;;;12.10;99.90;;;;;;4982586;28;20056;-73
2023/05/11 08:49:45;;;;;;;4.68;4.03;;;12.20;99.90;;;;;;4989879;28;19925;-73
2023/05/11 08:52:12;;;;;;;5.00;4.50;;;12.30;99.90;;;;;;4975122;28;20091;-73
2023/05/11 08:54:38;;;;;;;4.30;3.97;;;12.40;99.90;;;;;;4987488;28;20046;-73
2023/05/11 08:57:05;;;;;;;4.68;4.30;;;12.50;99.90;;;;;;4988182;28;20405;-73
2023/05/11 08:59:33;;;;;;;7.93;4.78;;;12.50;99.90;;;;;;4998552;28;20038;-72
2023/05/11 09:02:01;;;;;;;5.63;3.88;;;12.40;99.90;;;;;;4992205;28;20463;-72
2023/05/11 09:04:27;;;;;;;4.80;3.83;;;12.50;99.90;;;;;;4990276;28;20038;-73
2023/05/11 09:06:54;;;;;;;3.63;3.33;;;12.60;99.90;;;;;;4966138;28;20050;-73
2023/05/11 09:09:21;;;;;;;5.72;3.72;;;12.70;99.90;;;;;;4990995;28;20467;-72
2023/05/11 09:11:47;;;;;;;6.38;3.78;;;12.90;99.90;;;;;;4990221;28;20069;-72
2023/05/11 09:14:12;;;;;;;4.07;3.65;;;13.10;99.90;;;;;;4972860;28;20054;-73
2023/05/11 09:16:38;;;;;;;3.35;3.05;;;13.30;99.90;;;;;;4989104;28;20054;-72
2023/05/11 09:19:05;;;;;;;3.40;3.10;;;13.30;99.90;;;;;;4972320;28;20100;-73
2023/05/11 09:21:31;;;;;;;3.45;3.00;;;13.40;99.90;;;;;;4990277;28;20461;-73
2023/05/11 09:24:00;;;;;;;4.57;3.05;;;13.50;99.90;;;;;;4989613;28;20046;-73
2023/05/11 09:26:29;;;;;;;2.85;2.65;;;13.60;99.90;;;;;;4989892;28;20080;-73
2023/05/11 09:28:58;;;;;;;9.23;3.15;;;13.50;99.90;;;;;;4949233;28;20500;-73
2023/05/11 09:31:41;;;;;;;2.88;2.40;;;13.60;99.90;;;;;;4984338;28;20054;-73
2023/05/11 09:34:15;;;;;;;3.03;2.83;;;13.60;99.90;;;;;;4986733;28;20058;-73
2023/05/11 09:36:43;;;;;;;2.63;2.42;;;13.50;99.90;;;;;;4986826;28;20512;-72
2023/05/11 09:39:08;;;;;;;3.25;3.05;;;13.60;99.90;;;;;;4971093;28;20137;-73
2023/05/11 09:41:34;;;;;;;3.35;2.50;;;13.70;99.90;;;;;;4984549;28;20496;-73
2023/05/11 09:44:14;;;;;;;3.25;2.55;;;13.80;99.90;;;;;;4987150;28;20055;-73
2023/05/11 09:46:44;;;;;;;4.25;2.70;;;13.80;99.90;;;;;;4985949;28;20406;-73
2023/05/11 09:49:11;;;;;;;3.67;2.75;;;13.80;99.90;;;;;;4986589;28;20054;-72
2023/05/11 09:51:39;;;;;;;5.00;3.00;;;13.90;99.90;;;;;;4969981;28;20104;-73
2023/05/11 09:54:17;;;;;;;2.97;2.17;;;14.10;99.90;;;;;;4985398;28;20058;-73
2023/05/11 09:56:47;;;;;;;2.33;1.95;;;14.20;99.90;;;;;;4970222;28;20069;-72
2023/05/11 09:59:32;;;;;;;2.58;2.40;;;14.10;99.90;;;;;;4958838;28;20504;-73
2023/05/11 10:02:23;;;;;;;2.65;2.50;;;13.90;99.90;;;;;;4968839;28;20042;-72
2023/05/11 10:04:52;;;;;;;2.33;2.08;;;14.00;99.90;;;;;;4986331;28;20105;-73
2023/05/11 10:07:25;;;;;;;2.08;1.98;;;14.10;99.90;;;;;;4968859;28;20050;-72
2023/05/11 10:09:56;;;;;;;2.25;2.15;;;14.30;99.90;;;;;;4986303;28;20075;-73
2023/05/11 10:12:24;;;;;;;2.30;2.15;;;14.30;99.90;;;;;;4984900;28;20050;-73
2023/05/11 10:14:51;;;;;;;3.45;2.78;;;14.00;99.90;;;;;;4958035;28;20088;-72
2023/05/11 10:17:18;;;;;;;2.47;2.38;;;14.10;99.90;;;;;;4970475;28;20050;-72
2023/05/11 10:19:45;;;;;;;4.32;2.42;;;14.20;99.90;;;;;;4972931;28;20030;-73
2023/05/11 10:22:11;;;;;;;4.93;2.25;;;14.40;99.90;;;;;;4986617;28;20046;-72
2023/05/11 10:24:38;;;;;;;2.40;2.20;;;14.40;99.90;;;;;;4952564;28;20050;-72
2023/05/11 10:27:04;;;;;;;1.88;1.77;;;14.40;99.90;;;;;;4985995;28;20042;-73
2023/05/11 10:29:31;;;;;;;1.88;1.77;;;14.20;99.90;;;;;;4985022;28;20053;-73
2023/05/11 10:31:58;;;;;;;2.28;2.05;;;14.10;99.90;;;;;;5000442;28;20513;-72
2023/05/11 10:34:26;;;;;;;1.60;1.50;;;14.10;99.90;;;;;;4977648;28;20465;-73
2023/05/11 10:36:53;;;;;;;1.63;1.52;;;14.10;99.90;;;;;;4987138;28;20038;-72
2023/05/11 10:39:18;;;;;;;2.83;1.50;;;14.10;99.90;;;;;;5007560;28;20060;-72
2023/05/11 10:41:51;;;;;;;1.40;1.30;;;14.10;99.90;;;;;;4987458;28;20038;-72
2023/05/11 10:44:39;;;;;;;1.25;1.15;;;14.10;99.90;;;;;;5002734;28;20038;-73
2023/05/11 10:47:05;;;;;;;1.38;1.27;;;14.00;99.90;;;;;;4980763;28;20048;-73
2023/05/11 10:49:48;;;;;;;1.23;1.00;;;14.10;99.90;;;;;;4992532;28;20046;-74
2023/05/11 10:52:42;;;;;;;1.10;1.10;;;14.10;99.90;;;;;;4968177;28;20160;-73
2023/05/11 10:55:36;;;;;;;0.90;0.90;;;14.30;99.90;;;;;;4989033;28;20050;-73
2023/05/11 10:58:12;;;;;;;2.05;1.50;;;14.60;99.90;;;;;;4991493;28;20049;-73
2023/05/11 11:00:56;;;;;;;1.20;1.10;;;14.60;99.90;;;;;;4978394;28;20046;-73
2023/05/11 11:03:22;;;;;;;1.58;1.48;;;14.90;99.90;;;;;;4973120;28;20125;-73
2023/05/11 11:05:48;;;;;;;4.75;1.60;;;15.10;99.90;;;;;;4991594;28;20140;-73
2023/05/11 11:08:14;;;;;;;3.25;1.45;;;15.10;99.90;;;;;;4991657;28;20469;-73
2023/05/11 11:10:48;;;;;;;1.30;1.30;;;15.10;99.90;;;;;;4992519;28;20511;-73
2023/05/11 11:13:15;;;;;;;1.90;1.80;;;15.30;99.90;;;;;;4989236;28;20046;-73
2023/05/11 11:15:53;;;;;;;2.30;2.20;;;15.20;99.90;;;;;;4990934;28;20042;-73
2023/05/11 11:18:25;;;;;;;2.50;2.35;;;15.10;99.90;;;;;;4974305;28;20609;-73
2023/05/11 11:20:53;;;;;;;2.88;2.50;;;14.90;99.90;;;;;;4974202;28;20045;-73
2023/05/11 11:23:54;;;;;;;2.90;2.70;;;14.80;99.90;;;;;;4992294;28;20141;-73
2023/05/11 11:26:45;;;;;;;3.50;3.10;;;15.00;99.90;;;;;;4952517;28;20059;-73
2023/05/11 11:29:11;;;;;;;3.33;3.10;;;14.90;99.90;;;;;;4985791;28;20529;-73
2023/05/11 11:31:37;;;;;;;3.75;3.45;;;14.90;99.90;;;;;;4976156;28;20058;-73
2023/05/11 11:34:27;;;;;;;3.83;3.63;;;15.10;99.90;;;;;;4990330;28;20488;-73
2023/05/11 11:37:05;;;;;;;3.40;3.20;;;15.20;99.90;;;;;;4992278;28;20057;-73
2023/05/11 11:39:40;;;;;;;4.07;3.58;;;15.20;99.90;;;;;;5010324;28;20392;-74
2023/05/11 11:42:14;;;;;;;3.50;3.15;;;15.40;99.90;;;;;;4990929;28;20085;-73
2023/05/11 11:44:41;;;;;;;3.22;3.03;;;15.50;99.90;;;;;;4975958;28;20073;-73
2023/05/11 11:47:16;;;;;;;4.28;3.80;;;15.60;99.90;;;;;;4990736;28;20053;-73
2023/05/11 11:49:44;;;;;;;3.95;3.65;;;15.70;99.90;;;;;;4992620;28;20057;-73
2023/05/11 11:52:11;;;;;;;3.38;3.08;;;15.70;99.90;;;;;;4991772;28;20143;-73
2023/05/11 11:54:38;;;;;;;3.72;3.30;;;15.80;99.90;;;;;;4990878;28;20567;-73
2023/05/11 11:57:24;;;;;;;3.53;3.20;;;15.50;99.90;;;;;;4991540;28;20470;-73
2023/05/11 11:59:50;;;;;;;3.10;2.80;;;15.40;99.90;;;;;;4989707;28;20104;-74
2023/05/11 12:02:17;;;;;;;5.50;2.08;;;15.50;99.90;;;;;;4975338;28;20076;-72
2023/05/11 12:05:09;;;;;;;1.75;1.65;;;15.40;99.90;;;;;;4989690;28;20208;-73
2023/05/11 12:07:39;;;;;;;1.60;1.50;;;15.40;99.90;;;;;;4987143;28;20050;-73
2023/05/11 12:10:05;;;;;;;;;;;15.60;99.90;;;;;;4987563;28;20057;-73
2023/05/11 12:12:31;;;;;;;1.63;1.52;;;15.90;99.90;;;;;;4986398;28;19929;-72
2023/05/11 12:14:58;;;;;;;2.03;1.40;;;15.90;99.90;;;;;;4990426;28;20496;-73
2023/05/11 12:17:28;;;;;;;2.10;1.23;;;15.80;99.90;;;;;;4974802;28;20050;-72
2023/05/11 12:20:10;;;;;;;3.55;1.42;;;15.90;99.90;;;;;;4989746;28;20041;-72
2023/05/11 12:22:36;;;;;;;1.20;1.10;;;16.10;99.90;;;;;;4990599;28;20046;-72
2023/05/11 12:25:06;;;;;;;1.17;1.17;;;16.20;99.90;;;;;;4989890;28;20057;-73
2023/05/11 12:27:32;;;;;;;1.55;1.48;;;16.00;99.90;;;;;;4974105;28;20053;-72
2023/05/11 12:29:59;;;;;;;1.25;1.17;;;15.80;99.90;;;;;;4969897;28;20395;-72
2023/05/11 12:32:27;;;;;;;2.97;1.42;;;15.70;99.90;;;;;;4974442;28;20057;-73
2023/05/11 12:35:01;;;;;;;1.30;1.20;;;15.90;99.90;;;;;;4973226;28;20041;-72
2023/05/11 12:37:28;;;;;;;1.70;1.60;;;15.80;99.90;;;;;;4973943;28;20081;-72
2023/05/11 12:39:54;;;;;;;1.60;1.50;;;15.90;99.90;;;;;;4989988;28;20073;-72
2023/05/11 12:42:20;;;;;;;1.70;1.60;;;16.10;99.90;;;;;;4973703;28;20038;-72
2023/05/11 12:44:46;;;;;;;1.70;1.60;;;16.00;99.90;;;;;;4990649;28;20044;-72
2023/05/11 12:47:13;;;;;;;1.98;1.88;;;15.70;99.90;;;;;;4988706;28;20064;-72
2023/05/11 12:49:41;;;;;;;1.50;1.50;;;15.60;99.90;;;;;;4990939;28;20093;-72
2023/05/11 12:52:07;;;;;;;1.67;1.58;;;15.60;99.90;;;;;;4973624;28;20077;-72